createdAt,value
2018-12-25T00:02:16.881Z,5.93
2018-12-25T00:04:49.407Z,5.07
2018-12-25T00:07:20.379Z,6.70
2018-12-25T00:09:50.419Z,5.77
2018-12-25T00:12:20.059Z,5.07
2018-12-25T00:14:49.487Z,5.80
2018-12-25T00:17:19.880Z,5.47
2018-12-25T00:20:00.342Z,5.20
2018-12-25T00:22:32.528Z,5.30
2018-12-25T00:25:01.792Z,6.80
2018-12-25T00:27:32.265Z,7.87
2018-12-25T00:30:02.014Z,6.37
2018-12-25T00:32:31.970Z,5.63
2018-12-25T00:35:01.562Z,6.20
2018-12-25T00:37:32.257Z,6.30
2018-12-25T00:40:04.939Z,6.90
2018-12-25T00:42:34.170Z,5.23
2018-12-25T00:45:04.614Z,7.27
2018-12-25T00:47:36.333Z,6.13
2018-12-25T00:50:06.048Z,6.37
2018-12-25T00:52:36.569Z,6.37
2018-12-25T00:55:06.174Z,6.77
2018-12-25T00:57:39.379Z,5.77
2018-12-25T01:00:09.526Z,6.17
2018-12-25T01:02:39.963Z,5.30
2018-12-25T01:05:15.454Z,5.27
2018-12-25T01:07:47.917Z,4.77
2018-12-25T01:10:17.512Z,4.93
2018-12-25T01:12:47.031Z,8.67
2018-12-25T01:15:20.567Z,6.90
2018-12-25T01:17:56.412Z,5.47
2018-12-25T01:20:28.061Z,5.57
2018-12-25T01:22:58.238Z,5.77
2018-12-25T01:25:27.740Z,5.27
2018-12-25T01:28:01.420Z,5.07
2018-12-25T01:30:33.022Z,5.60
2018-12-25T01:33:04.848Z,5.33
2018-12-25T01:35:37.589Z,6.57
2018-12-25T01:38:06.862Z,7.33
2018-12-25T01:40:36.924Z,8.63
2018-12-25T01:43:06.719Z,8.53
2018-12-25T01:45:44.422Z,8.93
2018-12-25T01:48:18.547Z,8.33
2018-12-25T01:50:48.729Z,11.17
2018-12-25T01:53:19.052Z,12.30
2018-12-25T01:55:53.899Z,11.00
2018-12-25T01:58:26.491Z,10.97
2018-12-25T02:01:00.090Z,10.13
2018-12-25T02:03:30.168Z,10.73
2018-12-25T02:05:59.932Z,10.67
2018-12-25T02:08:29.761Z,11.87
2018-12-25T02:11:03.869Z,11.07
2018-12-25T02:13:36.860Z,10.13
2018-12-25T02:16:12.032Z,10.37
2018-12-25T02:18:45.037Z,9.67
2018-12-25T02:21:15.392Z,9.47
2018-12-25T02:23:44.988Z,10.20
2018-12-25T02:26:14.202Z,9.13
2018-12-25T02:28:44.342Z,12.27
2018-12-25T02:31:15.463Z,9.63
2018-12-25T02:33:45.873Z,8.50
2018-12-25T02:36:16.061Z,7.77
2018-12-25T02:38:50.108Z,8.93
2018-12-25T02:41:23.005Z,10.70
2018-12-25T02:43:57.879Z,12.03
2018-12-25T02:46:28.192Z,11.67
2018-12-25T02:48:57.764Z,10.13
2018-12-25T02:51:28.802Z,8.57
2018-12-25T02:53:59.547Z,9.10
2018-12-25T02:56:31.207Z,10.10
2018-12-25T02:59:04.079Z,8.33
2018-12-25T03:01:37.363Z,9.37
2018-12-25T03:04:07.707Z,11.40
2018-12-25T03:06:39.307Z,10.20
2018-12-25T03:09:10.425Z,10.63
2018-12-25T03:11:40.429Z,9.17
2018-12-25T03:14:10.098Z,8.87
2018-12-25T03:16:40.246Z,7.43
2018-12-25T03:19:10.354Z,10.07
2018-12-25T03:21:39.886Z,9.37
2018-12-25T03:24:13.258Z,8.17
2018-12-25T03:26:45.948Z,6.80
2018-12-25T03:29:15.795Z,6.97
2018-12-25T03:31:45.598Z,7.60
2018-12-25T03:34:19.098Z,6.27
2018-12-25T03:36:48.616Z,6.60
2018-12-25T03:39:18.416Z,6.73
2018-12-25T03:41:49.215Z,7.40
2018-12-25T03:44:28.825Z,8.57
2018-12-25T03:46:58.662Z,7.73
2018-12-25T03:49:28.164Z,7.17
2018-12-25T03:52:00.425Z,7.07
2018-12-25T03:54:30.060Z,9.93
2018-12-25T03:57:02.177Z,7.00
2018-12-25T03:59:31.670Z,8.13
2018-12-25T04:02:01.824Z,6.97
2018-12-25T04:04:35.346Z,6.30
2018-12-25T04:07:09.227Z,7.93
2018-12-25T04:09:40.739Z,11.17
2018-12-25T04:12:10.121Z,9.00
2018-12-25T04:14:39.606Z,10.67
2018-12-25T04:17:16.569Z,7.30
2018-12-25T04:19:50.572Z,7.30
2018-12-25T04:22:19.836Z,6.57
2018-12-25T04:24:50.169Z,6.20
2018-12-25T04:27:22.517Z,8.00
2018-12-25T04:29:55.616Z,6.80
2018-12-25T04:32:25.947Z,6.90
2018-12-25T04:34:56.353Z,7.40
2018-12-25T04:37:26.158Z,7.07
2018-12-25T04:39:56.053Z,7.40
2018-12-25T04:42:25.888Z,8.80
2018-12-25T04:44:55.226Z,6.83
2018-12-25T04:47:27.943Z,7.87
2018-12-25T04:49:57.454Z,7.37
2018-12-25T04:52:30.233Z,7.23
2018-12-25T04:55:00.998Z,8.43
2018-12-25T04:57:32.640Z,6.47
2018-12-25T05:00:03.132Z,7.77
2018-12-25T05:02:37.582Z,7.97
2018-12-25T05:05:08.182Z,8.17
2018-12-25T05:07:39.175Z,7.83
2018-12-25T05:10:11.646Z,11.40
2018-12-25T05:12:42.276Z,9.23
2018-12-25T05:15:15.023Z,8.57
2018-12-25T05:17:47.062Z,8.23
2018-12-25T05:20:21.146Z,7.47
2018-12-25T05:22:53.441Z,7.03
2018-12-25T05:25:25.436Z,8.13
2018-12-25T05:27:58.975Z,11.17
2018-12-25T05:30:31.409Z,7.90
2018-12-25T05:33:01.555Z,8.93
2018-12-25T05:35:31.238Z,9.20
2018-12-25T05:38:05.687Z,8.37
2018-12-25T05:40:35.760Z,8.27
2018-12-25T05:43:05.282Z,9.87
2018-12-25T05:45:36.088Z,9.23
2018-12-25T05:48:07.905Z,8.23
2018-12-25T05:50:37.645Z,9.10
2018-12-25T05:53:08.834Z,9.73
2018-12-25T05:55:47.423Z,8.33
2018-12-25T05:58:18.462Z,8.77
2018-12-25T06:00:48.258Z,8.00
2018-12-25T06:03:18.043Z,8.20
2018-12-25T06:05:48.090Z,9.87
2018-12-25T06:08:19.564Z,7.20
2018-12-25T06:10:50.398Z,8.17
2018-12-25T06:13:22.955Z,9.27
2018-12-25T06:15:52.211Z,8.63
2018-12-25T06:18:24.505Z,10.17
2018-12-25T06:20:55.186Z,8.23
2018-12-25T06:23:26.891Z,9.23
2018-12-25T06:25:57.928Z,8.23
2018-12-25T06:28:31.634Z,10.17
2018-12-25T06:31:02.921Z,8.57
2018-12-25T06:33:35.041Z,8.83
2018-12-25T06:36:04.603Z,9.63
2018-12-25T06:38:36.149Z,10.60
2018-12-25T06:41:07.621Z,11.20
2018-12-25T06:43:37.210Z,10.73
2018-12-25T06:46:09.797Z,10.60
2018-12-25T06:48:39.103Z,12.50
2018-12-25T06:51:13.490Z,10.57
2018-12-25T06:53:43.819Z,10.73
2018-12-25T06:56:17.438Z,11.83
2018-12-25T06:58:51.888Z,11.57
2018-12-25T07:01:25.585Z,12.73
2018-12-25T07:03:57.090Z,11.63
2018-12-25T07:06:26.456Z,11.50
2018-12-25T07:08:57.325Z,11.40
2018-12-25T07:11:28.660Z,10.30
2018-12-25T07:13:59.022Z,9.80
2018-12-25T07:16:29.342Z,9.43
2018-12-25T07:18:59.180Z,12.93
2018-12-25T07:21:28.706Z,10.73
2018-12-25T07:24:11.023Z,12.20
2018-12-25T07:26:45.159Z,11.67
2018-12-25T07:29:50.438Z,12.30
2018-12-25T07:32:58.537Z,11.30
2018-12-25T07:35:32.011Z,11.30
2018-12-25T07:38:04.269Z,10.87
2018-12-25T07:40:36.918Z,10.03
2018-12-25T07:43:08.558Z,11.67
2018-12-25T07:45:38.894Z,9.60
2018-12-25T07:48:16.402Z,12.47
2018-12-25T07:51:01.238Z,12.93
2018-12-25T07:53:54.213Z,11.13
2018-12-25T07:56:26.604Z,11.83
2018-12-25T07:58:56.689Z,13.07
2018-12-25T08:02:03.590Z,15.03
2018-12-25T08:04:39.908Z,13.37
2018-12-25T08:07:12.452Z,14.50
2018-12-25T08:09:43.588Z,21.57
2018-12-25T08:12:19.037Z,13.23
2018-12-25T08:14:50.564Z,14.80
2018-12-25T08:17:20.182Z,15.10
2018-12-25T08:19:49.889Z,12.23
2018-12-25T08:22:19.970Z,12.27
2018-12-25T08:24:52.056Z,12.93
2018-12-25T08:27:31.614Z,12.60
2018-12-25T08:30:08.179Z,11.37
2018-12-25T08:32:40.572Z,14.33
2018-12-25T08:35:13.764Z,14.20
2018-12-25T08:38:05.112Z,15.03
2018-12-25T08:40:40.739Z,12.83
2018-12-25T08:43:19.061Z,14.20
2018-12-25T08:45:49.000Z,11.13
2018-12-25T08:48:30.849Z,14.83
2018-12-25T08:51:01.845Z,14.83
2018-12-25T08:53:34.989Z,12.37
2018-12-25T08:56:05.886Z,12.37
2018-12-25T08:58:40.473Z,13.13
2018-12-25T09:01:18.029Z,11.87
2018-12-25T09:03:58.565Z,11.77
2018-12-25T09:06:30.216Z,13.60
2018-12-25T09:09:03.404Z,14.37
2018-12-25T09:11:37.209Z,23.23
2018-12-25T09:14:11.282Z,20.90
2018-12-25T09:16:45.633Z,16.00
2018-12-25T09:19:32.070Z,15.17
2018-12-25T09:22:13.910Z,13.73
2018-12-25T09:24:52.422Z,12.20
2018-12-25T09:27:27.275Z,12.40
2018-12-25T09:30:09.013Z,14.03
2018-12-25T09:32:39.382Z,18.60
2018-12-25T09:35:10.206Z,13.60
2018-12-25T09:37:41.136Z,12.37
2018-12-25T09:40:11.049Z,12.83
2018-12-25T09:42:41.348Z,12.43
2018-12-25T09:45:14.479Z,12.30
2018-12-25T09:47:47.867Z,12.37
2018-12-25T09:50:24.387Z,13.77
2018-12-25T09:52:56.706Z,13.23
2018-12-25T09:55:36.309Z,13.47
2018-12-25T09:58:07.613Z,11.40
2018-12-25T10:00:38.343Z,12.50
2018-12-25T10:03:07.597Z,13.23
2018-12-25T10:05:38.217Z,10.53
2018-12-25T10:08:25.796Z,13.13
2018-12-25T10:11:00.607Z,14.97
2018-12-25T10:13:31.526Z,16.00
2018-12-25T10:16:04.104Z,14.60
2018-12-25T10:18:36.385Z,14.77
2018-12-25T10:21:08.511Z,14.57
2018-12-25T10:23:37.983Z,14.47
2018-12-25T10:26:08.954Z,12.83
2018-12-25T10:28:40.010Z,12.83
2018-12-25T10:31:09.478Z,13.57
2018-12-25T10:33:40.268Z,13.87
2018-12-25T10:36:13.990Z,12.20
2018-12-25T10:38:49.095Z,13.97
2018-12-25T10:41:20.183Z,14.90
2018-12-25T10:43:59.192Z,18.47
2018-12-25T10:46:28.832Z,14.43
2018-12-25T10:48:59.979Z,12.50
2018-12-25T10:51:29.867Z,14.17
2018-12-25T10:53:59.142Z,12.83
2018-12-25T10:56:28.712Z,12.40
2018-12-25T10:58:58.248Z,13.00
2018-12-25T11:01:29.976Z,12.60
2018-12-25T11:03:59.590Z,13.57
2018-12-25T11:06:28.830Z,13.23
2018-12-25T11:08:58.088Z,11.67
2018-12-25T11:11:28.137Z,13.97
2018-12-25T11:13:57.427Z,11.23
2018-12-25T11:16:27.323Z,13.37
2018-12-25T11:18:57.317Z,10.57
2018-12-25T11:21:26.863Z,10.50
2018-12-25T11:23:56.901Z,11.30
2018-12-25T11:26:26.148Z,11.17
2018-12-25T11:28:55.605Z,12.17
2018-12-25T11:31:24.815Z,11.90
2018-12-25T11:33:54.067Z,11.17
2018-12-25T11:36:23.309Z,10.37
2018-12-25T11:38:52.576Z,11.27
2018-12-25T11:41:22.120Z,14.40
2018-12-25T11:43:52.171Z,14.50
2018-12-25T11:46:21.426Z,15.77
2018-12-25T11:48:51.555Z,13.27
2018-12-25T11:51:22.303Z,14.87
2018-12-25T11:53:51.538Z,11.67
2018-12-25T11:56:20.809Z,10.10
2018-12-25T11:58:50.038Z,11.17
2018-12-25T12:01:19.292Z,10.80
2018-12-25T12:03:48.522Z,11.83
2018-12-25T12:06:19.889Z,10.83
2018-12-25T12:08:50.394Z,12.20
2018-12-25T12:11:20.458Z,12.47
2018-12-25T12:13:49.986Z,14.07
2018-12-25T12:16:23.071Z,12.77
2018-12-25T12:18:52.569Z,10.23
2018-12-25T12:21:23.253Z,14.90
2018-12-25T12:23:57.379Z,13.73
2018-12-25T12:26:29.395Z,12.53
2018-12-25T12:28:59.040Z,12.83
2018-12-25T12:31:29.911Z,10.37
2018-12-25T12:33:59.990Z,10.73
2018-12-25T12:36:30.807Z,11.43
2018-12-25T12:39:00.661Z,16.73
2018-12-25T12:41:30.738Z,11.17
2018-12-25T12:43:59.965Z,12.93
2018-12-25T12:46:29.917Z,12.60
2018-12-25T12:48:59.412Z,12.10
2018-12-25T12:51:29.323Z,12.30
2018-12-25T12:54:00.057Z,12.27
2018-12-25T12:56:30.121Z,13.20
2018-12-25T12:58:59.905Z,11.90
2018-12-25T13:01:30.559Z,12.03
2018-12-25T13:04:05.809Z,13.63
2018-12-25T13:06:35.548Z,12.80
2018-12-25T13:09:14.398Z,11.77
2018-12-25T13:11:45.121Z,13.50
2018-12-25T13:14:14.616Z,13.33
2018-12-25T13:16:44.143Z,14.43
2018-12-25T13:19:14.932Z,14.33
2018-12-25T13:21:44.995Z,13.40
2018-12-25T13:24:17.223Z,13.13
2018-12-25T13:26:47.543Z,13.57
2018-12-25T13:29:19.129Z,13.30
2018-12-25T13:31:49.849Z,15.93
2018-12-25T13:34:20.482Z,14.07
2018-12-25T13:36:53.662Z,14.83
2018-12-25T13:39:24.733Z,13.43
2018-12-25T13:41:55.147Z,11.73
2018-12-25T13:44:25.020Z,12.27
2018-12-25T13:46:55.726Z,12.87
2018-12-25T13:49:26.421Z,13.37
2018-12-25T13:51:56.992Z,11.67
2018-12-25T13:54:26.356Z,12.13
2018-12-25T13:56:55.650Z,11.30
2018-12-25T13:59:26.067Z,11.70
2018-12-25T14:01:56.167Z,12.87
2018-12-25T14:04:28.567Z,12.30
2018-12-25T14:06:59.303Z,14.10
2018-12-25T14:09:36.819Z,13.13
2018-12-25T14:12:08.853Z,13.10
2018-12-25T14:14:39.455Z,14.23
2018-12-25T14:17:12.348Z,11.67
2018-12-25T14:19:44.297Z,12.60
2018-12-25T14:22:13.554Z,11.47
2018-12-25T14:24:44.862Z,13.90
2018-12-25T14:27:15.008Z,12.73
2018-12-25T14:30:16.427Z,15.47
2018-12-25T14:32:50.855Z,13.87
2018-12-25T14:35:22.348Z,14.30
2018-12-25T14:37:53.809Z,13.27
2018-12-25T14:40:24.658Z,13.90
2018-12-25T14:43:00.009Z,17.70
2018-12-25T14:45:35.856Z,15.60
2018-12-25T14:48:07.987Z,16.33
2018-12-25T14:50:48.535Z,15.10
2018-12-25T14:53:20.822Z,12.23
2018-12-25T14:55:57.645Z,14.37
2018-12-25T14:58:29.038Z,12.13
2018-12-25T15:01:03.002Z,15.27
2018-12-25T15:03:34.460Z,14.57
2018-12-25T15:06:04.949Z,16.10
2018-12-25T15:08:37.712Z,16.53
2018-12-25T15:11:07.474Z,16.80
2018-12-25T15:13:37.073Z,14.57
2018-12-25T15:16:07.490Z,15.60
2018-12-25T15:18:38.253Z,15.77
2018-12-25T15:21:10.970Z,17.00
2018-12-25T15:23:42.600Z,14.97
2018-12-25T15:26:18.153Z,16.17
2018-12-25T15:28:47.578Z,15.13
2018-12-25T15:31:33.964Z,15.43
2018-12-25T15:34:06.539Z,15.60
2018-12-25T15:36:36.730Z,14.47
2018-12-25T15:39:12.511Z,16.50
2018-12-25T15:41:44.350Z,16.07
2018-12-25T15:44:22.885Z,17.60
2018-12-25T15:46:59.791Z,16.80
2018-12-25T15:49:29.602Z,19.73
2018-12-25T15:51:58.972Z,18.30
2018-12-25T15:54:31.950Z,20.70
2018-12-25T15:57:07.440Z,20.00
2018-12-25T15:59:39.418Z,21.13
2018-12-25T16:02:12.289Z,18.00
2018-12-25T16:04:45.986Z,15.77
2018-12-25T16:07:36.788Z,16.87
2018-12-25T16:10:11.231Z,15.97
2018-12-25T16:12:40.507Z,18.07
2018-12-25T16:15:21.584Z,16.50
2018-12-25T16:17:51.683Z,39.80
2018-12-25T16:20:21.722Z,19.60
2018-12-25T16:22:52.473Z,20.33
2018-12-25T16:25:21.834Z,16.67
2018-12-25T16:27:51.119Z,18.80
2018-12-25T16:30:20.367Z,17.47
2018-12-25T16:32:51.154Z,19.17
2018-12-25T16:35:20.630Z,20.93
2018-12-25T16:37:52.144Z,19.50
2018-12-25T16:40:22.639Z,18.40
2018-12-25T16:43:04.625Z,17.90
2018-12-25T16:45:33.963Z,18.17
2018-12-25T16:48:03.493Z,17.97
2018-12-25T16:50:32.716Z,19.57
2018-12-25T16:53:02.025Z,16.60
2018-12-25T16:55:31.287Z,19.33
2018-12-25T16:58:00.534Z,16.17
2018-12-25T17:00:29.806Z,17.63
2018-12-25T17:02:59.025Z,16.40
2018-12-25T17:05:28.845Z,15.90
2018-12-25T17:07:58.075Z,16.97
2018-12-25T17:10:27.375Z,15.63
2018-12-25T17:12:57.433Z,16.50
2018-12-25T17:15:26.704Z,23.67
2018-12-25T17:17:56.199Z,27.00
2018-12-25T17:20:25.477Z,18.57
2018-12-25T17:22:55.478Z,20.87
2018-12-25T17:25:28.515Z,17.73
2018-12-25T17:27:58.100Z,22.30
2018-12-25T17:30:30.000Z,18.20
2018-12-25T17:33:25.541Z,20.03
2018-12-25T17:36:04.489Z,19.13
2018-12-25T17:38:34.067Z,19.20
2018-12-25T17:41:05.688Z,20.00
2018-12-25T17:43:40.733Z,23.63
2018-12-25T17:46:11.712Z,21.20
2018-12-25T17:48:41.582Z,20.13
2018-12-25T17:51:28.652Z,21.17
2018-12-25T17:54:10.682Z,17.23
2018-12-25T17:56:38.181Z,22.70
2018-12-25T17:59:14.564Z,23.07
2018-12-25T18:01:43.846Z,19.20
2018-12-25T18:04:16.142Z,17.50
2018-12-25T18:06:48.522Z,19.63
2018-12-25T18:09:18.263Z,15.53
2018-12-25T18:11:48.566Z,16.20
2018-12-25T18:14:22.203Z,16.50
2018-12-25T18:16:59.315Z,16.87
2018-12-25T18:19:36.570Z,17.50
2018-12-25T18:22:05.929Z,18.97
2018-12-25T18:24:37.179Z,17.80
2018-12-25T18:27:08.962Z,15.33
2018-12-25T18:29:38.557Z,25.97
2018-12-25T18:32:07.818Z,21.20
2018-12-25T18:34:37.067Z,20.50
2018-12-25T18:37:06.466Z,17.20
2018-12-25T18:39:36.479Z,16.73
2018-12-25T18:42:05.814Z,15.90
2018-12-25T18:44:35.130Z,16.27
2018-12-25T18:47:05.386Z,14.70
2018-12-25T18:49:44.434Z,18.10
2018-12-25T18:52:14.395Z,20.53
2018-12-25T18:54:52.280Z,17.67
2018-12-25T18:57:25.131Z,21.73
2018-12-25T19:00:05.092Z,19.53
2018-12-25T19:02:50.511Z,16.43
2018-12-25T19:05:26.533Z,18.43
2018-12-25T19:07:56.889Z,16.97
2018-12-25T19:10:26.518Z,25.20
2018-12-25T19:12:55.809Z,36.23
2018-12-25T19:15:30.001Z,37.23
2018-12-25T19:18:05.352Z,37.80
2018-12-25T19:20:35.243Z,18.10
2018-12-25T19:23:06.333Z,22.07
2018-12-25T19:25:35.654Z,19.23
2018-12-25T19:28:04.918Z,16.43
2018-12-25T19:30:36.376Z,17.53
2018-12-25T19:33:06.277Z,18.70
2018-12-25T19:35:36.639Z,17.73
2018-12-25T19:38:06.366Z,30.60
2018-12-25T19:40:37.450Z,21.23
2018-12-25T19:43:09.659Z,34.67
2018-12-25T19:45:56.878Z,30.03
2018-12-25T19:48:36.858Z,28.47
2018-12-25T19:51:06.845Z,18.67
2018-12-25T19:53:49.554Z,17.67
2018-12-25T19:56:20.582Z,16.57
2018-12-25T19:59:06.964Z,17.67
2018-12-25T20:01:37.274Z,17.33
2018-12-25T20:04:39.190Z,15.63
2018-12-25T20:07:37.475Z,18.87
2018-12-25T20:10:36.464Z,65.03
2018-12-25T20:13:44.090Z,28.30
2018-12-25T20:16:59.230Z,23.17
2018-12-25T20:20:09.141Z,19.53
2018-12-25T20:23:29.383Z,19.80
2018-12-25T20:26:25.135Z,41.77
2018-12-25T20:29:27.129Z,33.33
2018-12-25T20:32:33.502Z,23.80
2018-12-25T20:35:50.054Z,21.20
2018-12-25T20:39:05.518Z,21.47
2018-12-25T20:42:14.403Z,20.97
2018-12-25T20:45:19.252Z,18.80
2018-12-25T20:48:22.198Z,19.27
2018-12-25T20:51:27.790Z,20.73
2018-12-25T20:54:26.275Z,24.30
2018-12-25T20:57:32.023Z,21.87
2018-12-25T21:00:48.090Z,20.63
2018-12-25T21:04:08.102Z,20.50
2018-12-25T21:07:30.369Z,18.17
2018-12-25T21:10:38.579Z,16.60
2018-12-25T21:13:58.999Z,17.87
2018-12-25T21:16:59.844Z,17.80
2018-12-25T21:19:52.682Z,16.97
2018-12-25T21:22:57.679Z,17.93
2018-12-25T21:26:02.280Z,19.67
2018-12-25T21:28:34.407Z,18.43
2018-12-25T21:31:05.275Z,18.67
2018-12-25T21:33:36.336Z,16.07
2018-12-25T21:36:08.024Z,20.90
2018-12-25T21:38:39.382Z,17.20
2018-12-25T21:41:12.102Z,17.53
2018-12-25T21:43:41.660Z,16.77
2018-12-25T21:46:22.774Z,16.93
2018-12-25T21:48:52.995Z,18.23
2018-12-25T21:51:23.318Z,18.07
2018-12-25T21:53:53.131Z,19.13
2018-12-25T21:56:23.825Z,19.30
2018-12-25T21:58:54.331Z,16.97
2018-12-25T22:01:23.902Z,16.57
2018-12-25T22:03:54.263Z,15.83
2018-12-25T22:06:27.160Z,19.90
2018-12-25T22:08:56.432Z,17.70
2018-12-25T22:11:26.647Z,18.47
2018-12-25T22:13:58.332Z,17.00
2018-12-25T22:16:27.966Z,18.27
2018-12-25T22:18:59.332Z,19.37
2018-12-25T22:21:28.838Z,19.77
2018-12-25T22:23:59.453Z,16.67
2018-12-25T22:26:29.065Z,18.20
2018-12-25T22:28:58.949Z,32.13
2018-12-25T22:31:28.998Z,24.47
2018-12-25T22:33:59.548Z,21.70
2018-12-25T22:36:28.895Z,17.73
2018-12-25T22:39:01.371Z,17.90
2018-12-25T22:41:34.149Z,17.37
2018-12-25T22:44:03.425Z,15.03
2018-12-25T22:46:32.680Z,28.27
2018-12-25T22:49:02.973Z,42.47
2018-12-25T22:51:35.062Z,32.60
2018-12-25T22:54:08.663Z,27.30
2018-12-25T22:56:40.904Z,16.03
2018-12-25T22:59:11.163Z,16.63
2018-12-25T23:01:40.828Z,17.40
2018-12-25T23:04:10.451Z,16.90
2018-12-25T23:06:40.261Z,18.47
2018-12-25T23:09:10.696Z,15.97
2018-12-25T23:11:41.673Z,16.53
2018-12-25T23:14:17.216Z,18.77
2018-12-25T23:16:47.831Z,17.43
2018-12-25T23:19:19.684Z,20.80
2018-12-25T23:21:48.932Z,16.80
2018-12-25T23:24:18.774Z,19.43
2018-12-25T23:26:51.667Z,18.13
2018-12-25T23:29:23.980Z,21.93
2018-12-25T23:31:56.912Z,21.30
2018-12-25T23:34:26.176Z,20.43
2018-12-25T23:36:55.959Z,22.43
2018-12-25T23:39:25.780Z,21.23
2018-12-25T23:41:56.103Z,22.40
2018-12-25T23:44:30.445Z,20.40
2018-12-25T23:46:59.667Z,18.87
2018-12-25T23:49:29.987Z,24.00
2018-12-25T23:52:04.228Z,21.80
2018-12-25T23:54:38.374Z,17.37
2018-12-25T23:57:09.637Z,20.63
2018-12-25T23:59:42.333Z,19.43
